Time;durP1;ratioP1;P1;durP2;ratioP2;P2;SDS_P1;SDS_P2;PMS_P1;PMS_P2;Temp;Humidity;BMP_temperature;BMP_pressure;BME280_temperature;BME280_humidity;BME280_pressure;Samples;Min_cycle;Max_cycle;Signal;HPM_P1;HPM_P2
2022/07/20 00:00:14;;;;;;;9.13;4.60;;;;;;;23.56;54.88;100893.67;3453694;84;98294;-79
2022/07/20 00:05:15;;;;;;;8.70;4.20;;;;;;;23.45;55.22;100892.64;3474167;84;99016;-79
2022/07/20 00:15:36;;;;;;;9.33;4.45;;;;;;;23.32;55.95;100900.94;3455612;83;99311;-79
2022/07/20 00:20:37;;;;;;;8.60;4.62;;;;;;;23.26;56.23;100908.36;3432269;85;98932;-79
2022/07/20 00:25:38;;;;;;;7.85;4.35;;;;;;;23.19;56.26;100903.76;3461105;85;98858;-79
2022/07/20 00:30:42;;;;;;;11.05;6.12;;;;;;;23.13;56.86;100917.38;3459987;84;98280;-78
2022/07/20 00:35:42;;;;;;;11.60;5.08;;;;;;;23.08;57.21;100912.32;3481503;84;98785;-79
2022/07/20 00:40:43;;;;;;;10.82;5.10;;;;;;;23.00;56.90;100906.78;3481533;84;99052;-79
2022/07/20 00:45:45;;;;;;;8.93;4.70;;;;;;;22.90;56.74;100908.70;3479718;84;99050;-79
2022/07/20 00:50:46;;;;;;;9.20;4.60;;;;;;;22.89;57.72;100911.95;3471065;84;98917;-79
2022/07/20 00:55:47;;;;;;;9.40;5.00;;;;;;;22.84;57.75;100898.47;3489764;84;98802;-79
2022/07/20 01:00:48;;;;;;;11.57;4.90;;;;;;;22.78;57.97;100897.46;3463967;84;98460;-79
2022/07/20 01:05:49;;;;;;;11.48;6.03;;;;;;;22.71;57.59;100894.85;3442650;84;98096;-79
2022/07/20 01:10:51;;;;;;;9.75;4.90;;;;;;;22.65;58.20;100893.84;3482188;84;98951;-79
2022/07/20 01:15:52;;;;;;;10.13;5.65;;;;;;;22.62;58.43;100891.31;3467090;84;98843;-79
2022/07/20 01:21:06;;;;;;;10.08;5.55;;;;;;;22.57;58.65;100893.27;3472316;84;99041;-79
2022/07/20 01:26:07;;;;;;;9.73;5.30;;;;;;;22.49;58.46;100887.72;3489967;83;99084;-79
2022/07/20 01:31:08;;;;;;;9.77;5.00;;;;;;;22.45;59.06;100891.88;3484709;84;98518;-79
2022/07/20 01:36:10;;;;;;;10.32;5.40;;;;;;;22.42;58.81;100885.70;3465607;83;99026;-79
2022/07/20 01:41:11;;;;;;;10.20;5.17;;;;;;;22.35;58.96;100884.53;3447042;83;99269;-79
2022/07/20 01:46:12;;;;;;;17.30;5.40;;;;;;;22.31;59.57;100888.05;3457333;85;99079;-79
2022/07/20 01:51:13;;;;;;;10.07;5.20;;;;;;;22.30;59.83;100880.27;3457683;84;99101;-79
2022/07/20 01:56:14;;;;;;;12.78;5.90;;;;;;;22.26;59.83;100871.16;3456284;85;99063;-79
2022/07/20 02:01:15;;;;;;;11.13;5.93;;;;;;;22.17;59.11;100873.83;3457074;84;98549;-79
2022/07/20 02:06:16;;;;;;;10.72;5.45;;;;;;;22.06;59.30;100864.94;3456986;84;98899;-79
2022/07/20 02:11:17;;;;;;;9.13;5.40;;;;;;;22.01;59.92;100866.88;3449473;84;98810;-79
2022/07/20 02:16:19;;;;;;;11.17;5.37;;;;;;;21.97;59.90;100864.02;3454293;85;98938;-79
2022/07/20 02:21:22;;;;;;;10.50;5.43;;;;;;;21.91;60.08;100867.96;3456210;83;99073;-79
2022/07/20 02:26:24;;;;;;;11.03;5.22;;;;;;;21.90;60.55;100863.59;3449380;85;98245;-79
2022/07/20 02:31:25;;;;;;;9.63;5.20;;;;;;;21.88;60.69;100859.05;3434941;84;98506;-79
2022/07/20 02:36:26;;;;;;;11.20;5.80;;;;;;;21.86;60.73;100862.90;3483556;83;98547;-79
2022/07/20 02:41:27;;;;;;;10.80;6.23;;;;;;;21.83;61.01;100868.00;3488238;84;98755;-79
2022/07/20 02:46:28;;;;;;;12.65;6.42;;;;;;;21.79;61.31;100868.70;3468432;84;98949;-79
2022/07/20 02:51:29;;;;;;;14.80;6.92;;;;;;;21.73;61.18;100873.88;3476838;84;99053;-79
2022/07/20 02:56:30;;;;;;;11.53;5.83;;;;;;;21.46;61.29;100853.78;3483772;84;98869;-79
2022/07/20 03:01:31;;;;;;;10.13;5.62;;;;;;;21.46;61.29;100853.78;3486006;83;30444;-79
2022/07/20 03:06:32;;;;;;;11.93;5.77;;;;;;;21.54;61.51;100878.39;3480474;84;98766;-80
2022/07/20 03:11:34;;;;;;;10.67;5.83;;;;;;;21.45;61.36;100885.22;3452141;84;98981;-80
2022/07/20 03:16:35;;;;;;;14.77;6.57;;;;;;;21.41;61.91;100873.95;3482698;84;98950;-80
2022/07/20 03:21:36;;;;;;;11.80;6.53;;;;;;;21.37;61.73;100878.84;3468213;84;99337;-80
2022/07/20 03:26:37;;;;;;;9.78;6.00;;;;;;;21.33;62.19;100882.34;3477913;84;99072;-80
2022/07/20 03:31:38;;;;;;;10.93;6.07;;;;;;;21.33;62.40;100882.34;3471134;84;97960;-80
2022/07/20 03:36:39;;;;;;;12.13;6.33;;;;;;;21.28;62.57;100878.06;3453710;84;98753;-80
2022/07/20 03:41:41;;;;;;;10.85;7.00;;;;;;;21.26;62.66;100887.49;3488681;84;98807;-80
2022/07/20 03:46:42;;;;;;;14.47;6.45;;;;;;;21.22;62.39;100888.22;3476381;83;99025;-80
2022/07/20 03:51:43;;;;;;;11.55;6.83;;;;;;;21.14;62.94;100891.00;3467122;84;98981;-80
2022/07/20 03:56:44;;;;;;;11.63;6.37;;;;;;;21.16;63.30;100901.77;3468417;84;99039;-80
2022/07/20 04:01:45;;;;;;;13.45;7.25;;;;;;;21.17;63.15;100896.34;3466994;84;99074;-80
2022/07/20 04:06:46;;;;;;;12.10;6.62;;;;;;;21.12;63.03;100903.86;3485335;84;98783;-80
2022/07/20 04:11:47;;;;;;;11.95;6.72;;;;;;;21.15;63.46;100907.20;3490007;84;98715;-81
2022/07/20 04:16:48;;;;;;;11.03;7.05;;;;;;;21.15;63.38;100902.38;3468702;84;99100;-81
2022/07/20 04:21:49;;;;;;;11.73;6.75;;;;;;;21.16;63.79;100903.17;3479777;84;99031;-82
2022/07/20 04:26:50;;;;;;;15.93;6.75;;;;;;;21.16;63.71;100903.97;3483608;84;99319;-84
2022/07/20 04:31:52;;;;;;;14.40;7.15;;;;;;;21.14;63.61;100905.00;3475423;84;99327;-84
2022/07/20 04:36:53;;;;;;;11.95;7.25;;;;;;;21.12;63.59;100908.06;3430286;84;99117;-84
2022/07/20 04:41:54;;;;;;;10.18;6.50;;;;;;;21.12;63.77;100908.06;3454132;85;99279;-84
2022/07/20 04:46:55;;;;;;;10.05;6.35;;;;;;;21.10;64.17;100914.09;3437865;84;99001;-83
2022/07/20 04:51:56;;;;;;;14.20;7.20;;;;;;;21.16;64.29;100921.37;3450272;85;98927;-82
2022/07/20 04:56:57;;;;;;;16.50;8.38;;;;;;;21.21;64.13;100918.81;3438339;84;99081;-82
2022/07/20 05:01:58;;;;;;;12.78;7.37;;;;;;;21.25;64.23;100932.13;3447097;84;99059;-82
2022/07/20 05:06:59;;;;;;;14.87;7.08;;;;;;;21.30;64.40;100929.44;3434643;85;98883;-82
2022/07/20 05:12:00;;;;;;;12.70;6.75;;;;;;;21.39;64.51;100923.98;3443885;85;98860;-82
2022/07/20 05:17:01;;;;;;;13.22;6.87;;;;;;;21.48;64.51;100918.56;3463461;85;98853;-82
2022/07/20 05:22:03;;;;;;;17.48;8.18;;;;;;;21.59;64.27;100926.84;3431495;85;99009;-82
2022/07/20 05:27:04;;;;;;;15.78;7.60;;;;;;;21.74;64.43;100935.73;3435674;85;99050;-82
2022/07/20 05:32:07;;;;;;;18.65;8.03;;;;;;;22.00;64.29;100932.59;3466334;85;99008;-82
2022/07/20 05:37:08;;;;;;;11.20;6.22;;;;;;;22.42;63.61;100934.20;3469560;84;98985;-82
2022/07/20 05:42:09;;;;;;;14.75;6.92;;;;;;;22.94;63.01;100937.42;3486563;84;98782;-82
2022/07/20 05:47:10;;;;;;;15.00;7.42;;;;;;;23.57;62.17;100933.97;3482522;84;98969;-82
2022/07/20 05:52:11;;;;;;;12.90;6.58;;;;;;;24.27;61.26;100930.08;3487145;83;99011;-81
2022/07/20 05:57:12;;;;;;;16.10;6.78;;;;;;;24.99;59.52;100932.53;3476722;84;98962;-81
2022/07/20 06:02:13;;;;;;;12.33;6.42;;;;;;;25.68;58.15;100929.48;3490114;84;98994;-82
2022/07/20 06:07:14;;;;;;;13.90;6.45;;;;;;;26.35;56.52;100936.56;3466929;84;98945;-82
2022/07/20 06:12:15;;;;;;;16.75;6.70;;;;;;;27.05;54.88;100945.97;3488584;84;98752;-82
2022/07/20 06:17:16;;;;;;;12.05;6.70;;;;;;;27.76;53.38;100936.95;3478957;84;98785;-82
2022/07/20 06:22:17;;;;;;;14.20;6.65;;;;;;;28.26;52.13;100937.34;3456226;84;98934;-82
2022/07/20 06:27:18;;;;;;;14.93;5.95;;;;;;;28.78;51.28;100942.82;3459146;84;99078;-82
2022/07/20 06:32:19;;;;;;;16.73;7.15;;;;;;;29.37;50.04;100937.22;3488282;83;99410;-82
2022/07/20 06:37:20;;;;;;;14.43;6.67;;;;;;;29.87;47.68;100942.95;3432839;84;98907;-82
2022/07/20 06:42:21;;;;;;;13.35;7.62;;;;;;;30.28;47.55;100943.85;3451429;85;98920;-82
2022/07/20 06:47:22;;;;;;;20.10;6.40;;;;;;;30.87;46.14;100937.08;3454369;85;99206;-82
2022/07/20 06:52:23;;;;;;;14.95;6.28;;;;;;;31.31;44.79;100947.38;3453349;85;99001;-82
2022/07/20 06:57:25;;;;;;;15.18;6.45;;;;;;;31.59;44.04;100942.00;3457258;85;99088;-82
2022/07/20 07:02:26;;;;;;;13.80;6.33;;;;;;;31.92;42.80;100939.34;3443638;85;99084;-82
2022/07/20 07:07:27;;;;;;;17.25;7.78;;;;;;;32.17;42.30;100947.58;3426344;84;99063;-82
2022/07/20 07:12:28;;;;;;;14.43;5.87;;;;;;;32.43;41.79;100948.20;3444856;85;98618;-82
2022/07/20 07:17:30;;;;;;;16.55;6.65;;;;;;;32.56;41.22;100948.47;3460872;85;98992;-81
2022/07/20 07:22:32;;;;;;;13.45;5.90;;;;;;;33.01;41.11;100948.67;3459473;84;98990;-81
2022/07/20 07:27:34;;;;;;;14.55;5.80;;;;;;;33.25;39.86;100951.11;3431148;84;98944;-81
2022/07/20 07:32:35;;;;;;;12.87;5.57;;;;;;;33.61;39.89;100952.85;3443929;85;98953;-81
2022/07/20 07:37:40;;;;;;;11.73;6.53;;;;;;;33.98;38.64;100957.55;3447951;84;99128;-81
2022/07/20 07:42:42;;;;;;;11.15;5.95;;;;;;;34.18;38.56;100959.27;3445511;85;27389;-81
2022/07/20 07:47:45;;;;;;;13.43;6.28;;;;;;;33.87;37.58;100951.88;3470005;84;99056;-81
2022/07/20 07:52:46;;;;;;;17.00;6.17;;;;;;;33.89;38.03;100954.98;3458358;85;99113;-81
2022/07/20 07:57:47;;;;;;;15.20;6.85;;;;;;;33.92;38.36;100951.73;3460853;83;99186;-81
2022/07/20 08:02:48;;;;;;;11.78;6.12;;;;;;;33.94;37.69;100944.19;3454478;84;99049;-81
2022/07/20 08:07:49;;;;;;;13.80;6.25;;;;;;;33.91;37.15;100945.26;3453854;85;99024;-81
2022/07/20 08:12:51;;;;;;;13.38;5.90;;;;;;;34.00;37.75;100947.03;3467675;84;26194;-81
2022/07/20 08:17:52;;;;;;;15.35;6.03;;;;;;;34.37;37.07;100943.85;3453012;84;99061;-81
2022/07/20 08:22:53;;;;;;;12.58;5.20;;;;;;;34.82;36.24;100942.92;3474965;85;98757;-82
2022/07/20 08:27:54;;;;;;;13.93;5.58;;;;;;;35.28;35.56;100948.49;3455664;85;99100;-81
2022/07/20 08:32:55;;;;;;;12.98;5.53;;;;;;;35.71;34.58;100942.98;3437160;85;99079;-81
2022/07/20 08:37:56;;;;;;;11.50;5.70;;;;;;;36.43;34.50;100949.97;3434900;83;99099;-83
2022/07/20 08:42:58;;;;;;;8.98;4.92;;;;;;;37.26;32.53;100944.34;3435924;85;25997;-82
2022/07/20 08:48:11;;;;;;;11.20;5.45;;;;;;;37.68;31.49;100946.93;3462884;85;99274;-82
2022/07/20 08:53:09;;;;;;;11.90;5.53;;;;;;;38.32;30.55;100937.34;3432818;85;98920;-82
2022/07/20 08:58:11;;;;;;;9.18;5.20;;;;;;;38.75;30.04;100934.75;3450098;85;98983;-81
2022/07/20 09:03:13;;;;;;;9.07;4.73;;;;;;;39.37;30.18;100938.39;3458148;85;99422;-81
2022/07/20 09:08:19;;;;;;;10.32;5.10;;;;;;;39.82;28.81;100935.84;3437061;85;99014;-82
2022/07/20 09:13:21;;;;;;;8.68;4.72;;;;;;;40.45;28.07;100935.72;3469194;85;28167;-81
2022/07/20 09:18:26;;;;;;;;;;;;;;;40.95;26.59;100926.19;3454279;84;98705;-81
2022/07/20 09:23:34;;;;;;;7.50;4.33;;;;;;;41.20;26.43;100930.04;3453017;83;84100;-81
2022/07/20 09:28:49;;;;;;;10.60;5.10;;;;;;;41.42;25.86;100934.30;3441581;85;98906;-82
2022/07/20 09:34:17;;;;;;;13.38;5.30;;;;;;;41.17;25.90;100933.32;3440901;85;99005;-81
2022/07/20 09:39:18;;;;;;;9.25;4.70;;;;;;;41.66;24.96;100930.76;3417205;85;99032;-80
2022/07/20 09:44:31;;;;;;;10.98;5.05;;;;;;;42.20;24.14;100928.58;3429025;86;98820;-81
2022/07/20 09:49:34;;;;;;;8.08;4.62;;;;;;;42.22;24.52;100930.98;3422126;85;99062;-81
2022/07/20 09:54:35;;;;;;;10.72;4.87;;;;;;;42.70;24.38;100917.20;3429584;86;28353;-81
2022/07/20 09:59:37;;;;;;;7.93;4.63;;;;;;;43.15;24.16;100911.83;3423673;84;99155;-81
2022/07/20 10:04:38;;;;;;;8.38;4.62;;;;;;;43.62;22.99;100910.11;3407232;86;98956;-81
2022/07/20 10:09:39;;;;;;;8.10;4.97;;;;;;;44.00;22.70;100906.77;3423944;85;98897;-81
2022/07/20 10:14:44;;;;;;;8.63;4.58;;;;;;;44.36;22.18;100901.07;3430121;86;98842;-80
2022/07/20 10:19:47;;;;;;;10.35;5.25;;;;;;;44.58;21.96;100893.51;3423408;85;98768;-81
2022/07/20 10:25:12;;;;;;;9.98;4.83;;;;;;;44.36;21.52;100896.05;3430818;86;27469;-82
2022/07/20 10:30:19;;;;;;;12.82;6.30;;;;;;;44.69;20.85;100900.88;3422043;85;98745;-80
2022/07/20 10:35:30;;;;;;;9.55;5.70;;;;;;;44.73;20.89;100904.86;3435438;84;98888;-80
2022/07/20 10:40:31;;;;;;;11.95;5.33;;;;;;;44.50;20.22;100892.06;3471513;84;98959;-81
2022/07/20 10:45:34;;;;;;;8.70;5.07;;;;;;;44.47;20.56;100886.00;3479277;83;99071;-81
2022/07/20 10:50:38;;;;;;;9.75;5.40;;;;;;;44.62;20.95;100879.28;3459216;83;98746;-82
2022/07/20 10:55:52;;;;;;;9.28;5.35;;;;;;;44.88;19.99;100871.91;3476844;84;98885;-83
2022/07/20 11:00:58;;;;;;;11.97;5.90;;;;;;;44.42;19.29;100876.21;3473320;84;98730;-82
2022/07/20 11:06:13;;;;;;;11.70;5.97;;;;;;;44.35;20.22;100879.97;3433582;83;98976;-85
2022/07/20 11:11:18;;;;;;;10.30;5.83;;;;;;;44.63;20.11;100876.46;3429378;84;99302;-86
2022/07/20 11:16:22;;;;;;;18.65;6.65;;;;;;;44.95;20.54;100871.78;3436717;86;98182;-88
2022/07/20 11:21:38;;;;;;;10.60;6.30;;;;;;;45.13;19.76;100872.44;3429276;85;99151;-85
2022/07/20 11:26:39;;;;;;;10.85;6.60;;;;;;;45.29;18.94;100867.90;3424160;85;99025;-85
2022/07/20 11:31:43;;;;;;;10.73;7.07;;;;;;;44.93;18.65;100872.30;3438636;85;98953;-83
2022/07/20 11:36:43;;;;;;;10.20;5.85;;;;;;;44.94;18.49;100865.89;3418314;86;98782;-84
2022/07/20 11:41:46;;;;;;;12.63;5.40;;;;;;;44.93;18.14;100869.41;3430937;86;99066;-88
2022/07/20 11:46:48;;;;;;;8.18;5.87;;;;;;;44.29;19.94;100859.88;3428233;86;99074;-84
2022/07/20 11:51:59;;;;;;;9.95;5.72;;;;;;;44.51;20.20;100862.43;3410884;85;98831;-83
2022/07/20 11:57:00;;;;;;;12.37;6.40;;;;;;;44.74;19.73;100853.35;3409383;86;98852;-84
2022/07/20 12:02:02;;;;;;;10.80;6.10;;;;;;;44.09;19.69;100854.62;3432796;85;99122;-90
2022/07/20 12:08:07;;;;;;;;;;;;;;;44.38;18.85;100853.33;3438112;83;99206;-85
2022/07/20 12:12:44;;;;;;;;;;;;;;;43.93;20.47;100843.81;3459375;83;84112;-84
2022/07/20 12:17:16;;;;;;;10.82;5.92;;;;;;;44.15;18.67;100839.84;3480379;83;85224;-85
2022/07/20 12:22:20;;;;;;;10.08;5.45;;;;;;;44.16;19.18;100852.98;3458298;83;99410;-84
2022/07/20 12:27:27;;;;;;;8.85;6.33;;;;;;;44.02;18.53;100846.02;3465957;83;99092;-83
2022/07/20 12:32:33;;;;;;;14.75;6.12;;;;;;;43.88;19.26;100835.47;3492347;83;98095;-85
2022/07/20 12:37:56;;;;;;;9.70;5.67;;;;;;;43.37;20.30;100839.09;3482011;83;99379;-86
2022/07/20 12:42:57;;;;;;;9.93;5.75;;;;;;;43.11;21.20;100832.48;3465913;83;27412;-86
2022/07/20 12:47:58;;;;;;;10.08;6.40;;;;;;;43.49;21.53;100814.01;3444934;83;98569;-90
2022/07/20 12:52:59;;;;;;;11.73;6.47;;;;;;;43.71;20.26;100817.30;3466874;83;99123;-83
2022/07/20 12:58:00;;;;;;;12.05;6.65;;;;;;;42.97;19.82;100813.88;3450539;83;99277;-85
2022/07/20 13:03:02;;;;;;;11.43;6.15;;;;;;;42.91;19.91;100817.02;3469175;83;99131;-85
2022/07/20 13:08:04;;;;;;;22.77;7.60;;;;;;;42.49;19.70;100808.95;3442962;83;98984;-85
2022/07/20 13:13:05;;;;;;;14.17;6.30;;;;;;;42.06;19.64;100805.80;3437863;83;25877;-85
2022/07/20 13:18:08;;;;;;;11.12;6.40;;;;;;;42.12;19.97;100799.09;3445375;83;98946;-85
2022/07/20 13:23:09;;;;;;;10.95;5.90;;;;;;;42.47;20.41;100796.44;3466768;83;98832;-84
2022/07/20 13:28:11;;;;;;;12.55;5.83;;;;;;;42.36;20.05;100795.47;3455027;83;99025;-84
2022/07/20 13:33:12;;;;;;;10.50;6.60;;;;;;;42.49;20.96;100790.84;3488975;83;99417;-86
2022/07/20 13:38:13;;;;;;;11.88;6.37;;;;;;;42.73;20.29;100787.17;3476277;83;99271;-90
2022/07/20 13:43:15;;;;;;;10.80;6.83;;;;;;;42.92;20.35;100783.00;3477469;83;26140;-83
2022/07/20 13:48:16;;;;;;;13.00;6.70;;;;;;;42.87;20.64;100776.81;3473574;83;99223;-87
2022/07/20 13:53:19;;;;;;;11.00;6.28;;;;;;;42.87;20.01;100771.77;3452769;83;98887;-84
2022/07/20 13:58:21;;;;;;;12.73;6.00;;;;;;;42.31;20.21;100777.66;3514985;83;99286;-84
2022/07/20 14:03:22;;;;;;;12.43;6.42;;;;;;;41.85;20.35;100781.51;3502654;83;99083;-84
2022/07/20 14:08:24;;;;;;;11.18;6.53;;;;;;;41.95;20.37;100769.40;3486243;83;99280;-88
2022/07/20 14:13:25;;;;;;;13.30;7.28;;;;;;;41.50;20.09;100774.62;3426839;85;25930;-86
2022/07/20 14:18:26;;;;;;;11.68;7.22;;;;;;;41.21;20.59;100777.05;3462580;83;98693;-85
2022/07/20 14:23:29;;;;;;;16.40;7.23;;;;;;;40.97;20.58;100764.67;3514621;83;98868;-85
2022/07/20 14:28:30;;;;;;;11.20;6.40;;;;;;;40.76;20.87;100770.57;3474933;83;99424;-84
2022/07/20 14:33:31;;;;;;;11.45;6.80;;;;;;;40.68;20.62;100764.02;3464295;83;99331;-85
2022/07/20 14:38:32;;;;;;;11.85;6.80;;;;;;;40.33;20.54;100757.11;3496372;83;98970;-84
2022/07/20 14:43:34;;;;;;;11.12;6.67;;;;;;;40.04;20.95;100749.17;3438023;85;99028;-93
2022/07/20 14:48:35;;;;;;;10.13;6.63;;;;;;;39.96;21.89;100754.92;3381374;85;99128;-82
2022/07/20 14:53:36;;;;;;;14.80;6.55;;;;;;;39.58;22.08;100746.05;3508893;83;98894;-83
2022/07/20 14:58:37;;;;;;;9.78;6.35;;;;;;;39.39;22.09;100742.04;3446295;84;99284;-83
2022/07/20 15:03:39;;;;;;;11.83;6.33;;;;;;;39.27;22.92;100734.27;3400264;85;98877;-84
2022/07/20 15:08:40;;;;;;;14.33;7.35;;;;;;;39.15;22.95;100738.17;3445095;83;99452;-82
2022/07/20 15:13:41;;;;;;;12.28;6.33;;;;;;;38.74;22.25;100737.52;3419851;85;99277;-85
2022/07/20 15:18:42;;;;;;;11.33;6.60;;;;;;;38.77;23.07;100731.41;3368602;86;98882;-84
2022/07/20 15:23:43;;;;;;;12.78;6.22;;;;;;;38.46;22.52;100731.77;3388806;85;98877;-90
2022/07/20 15:28:44;;;;;;;10.00;6.55;;;;;;;38.25;22.72;100725.23;3377509;85;99069;-87
2022/07/20 15:33:45;;;;;;;9.67;6.23;;;;;;;37.90;23.47;100722.29;3379936;85;99049;-83
2022/07/20 15:38:46;;;;;;;11.30;6.37;;;;;;;37.90;23.47;100722.29;3425200;86;98817;-85
2022/07/20 15:43:47;;;;;;;9.83;6.55;;;;;;;37.75;22.91;100716.38;3410244;86;99499;-83
2022/07/20 15:48:48;;;;;;;11.10;6.25;;;;;;;37.62;23.52;100711.35;3387907;85;98694;-86
2022/07/20 15:53:49;;;;;;;11.75;6.10;;;;;;;37.18;22.97;100705.16;3415677;86;98798;-85
2022/07/20 15:58:50;;;;;;;11.40;6.55;;;;;;;36.92;23.18;100698.77;3395838;85;99406;-85
2022/07/20 16:03:51;;;;;;;10.70;6.50;;;;;;;36.62;23.55;100695.42;3404544;86;99104;-83
2022/07/20 16:08:52;;;;;;;9.90;5.92;;;;;;;36.50;23.88;100694.09;3373960;86;99080;-83
2022/07/20 16:13:53;;;;;;;10.10;5.53;;;;;;;36.37;23.87;100693.31;3412044;86;98856;-87
2022/07/20 16:18:55;;;;;;;9.57;5.40;;;;;;;36.20;24.14;100692.20;3397343;86;98675;-84
2022/07/20 16:23:56;;;;;;;12.68;6.20;;;;;;;36.05;24.76;100686.17;3389500;86;98714;-84
2022/07/20 16:28:57;;;;;;;11.33;5.90;;;;;;;35.86;24.47;100694.72;3415667;86;99138;-84
2022/07/20 16:34:00;;;;;;;10.38;6.15;;;;;;;35.68;24.82;100699.13;3387518;85;99398;-84
2022/07/20 16:39:01;;;;;;;11.40;5.90;;;;;;;35.44;24.76;100696.38;3370781;86;99721;-84
2022/07/20 16:44:03;;;;;;;12.97;5.40;;;;;;;35.28;25.14;100698.04;3380209;86;99105;-86
2022/07/20 16:49:04;;;;;;;10.50;6.10;;;;;;;35.11;25.62;100703.19;3394374;86;98953;-85
2022/07/20 16:54:06;;;;;;;13.20;6.55;;;;;;;34.88;25.42;100704.12;3405292;86;97979;-84
2022/07/20 16:59:07;;;;;;;13.30;6.25;;;;;;;34.64;25.20;100694.75;3437290;86;99211;-85
2022/07/20 17:04:08;;;;;;;11.18;6.05;;;;;;;34.51;25.75;100686.86;3431024;86;99444;-85
2022/07/20 17:09:09;;;;;;;10.58;5.75;;;;;;;34.33;25.76;100682.51;3396125;85;98908;-83
2022/07/20 17:14:10;;;;;;;9.08;5.78;;;;;;;34.21;25.80;100678.95;3406807;86;99522;-83
2022/07/20 17:19:23;;;;;;;11.78;5.47;;;;;;;34.06;25.91;100677.13;3407210;85;98630;-85
2022/07/20 17:24:25;;;;;;;13.70;6.95;;;;;;;33.93;26.55;100674.15;3462627;85;98934;-85
2022/07/20 17:29:27;;;;;;;10.82;5.40;;;;;;;33.81;26.87;100672.70;3395280;86;98921;-85
2022/07/20 17:34:28;;;;;;;11.38;6.75;;;;;;;33.64;27.10;100672.03;3458649;84;99163;-84
2022/07/20 17:39:29;;;;;;;12.05;6.03;;;;;;;33.47;27.40;100667.09;3492619;83;99044;-83
2022/07/20 17:44:30;;;;;;;13.25;5.42;;;;;;;33.31;27.53;100663.69;3542367;83;98940;-85
2022/07/20 17:49:32;;;;;;;15.65;6.62;;;;;;;33.15;28.44;100665.17;3503085;83;98820;-86
2022/07/20 17:54:33;;;;;;;12.13;5.50;;;;;;;33.00;28.72;100659.81;3476885;83;25843;-84
2022/07/20 17:59:34;;;;;;;10.82;5.45;;;;;;;32.87;28.95;100661.05;3535452;82;99086;-84
2022/07/20 18:04:35;;;;;;;11.18;5.37;;;;;;;32.71;29.92;100663.92;3517706;83;98955;-85
2022/07/20 18:09:36;;;;;;;9.88;5.80;;;;;;;32.55;30.43;100660.48;3505039;82;98983;-84
2022/07/20 18:14:37;;;;;;;9.20;5.40;;;;;;;32.40;32.02;100658.57;3521741;82;98812;-84
2022/07/20 18:19:38;;;;;;;9.43;5.60;;;;;;;32.26;33.11;100663.27;3522740;82;98775;-85
2022/07/20 18:24:39;;;;;;;8.60;4.92;;;;;;;32.09;33.88;100661.73;3559025;82;26536;-85
2022/07/20 18:29:40;;;;;;;14.58;6.30;;;;;;;31.92;34.63;100663.81;3490112;82;98926;-85
2022/07/20 18:34:41;;;;;;;13.72;6.65;;;;;;;31.73;35.62;100662.77;3500729;82;99062;-85
2022/07/20 18:39:44;;;;;;;11.70;5.72;;;;;;;31.55;36.25;100666.85;3483133;82;99371;-85
2022/07/20 18:44:45;;;;;;;14.43;6.55;;;;;;;31.35;36.32;100662.04;3537726;82;99438;-85
2022/07/20 18:49:46;;;;;;;11.55;6.03;;;;;;;31.13;36.80;100671.28;3513943;82;99103;-86
2022/07/20 18:54:49;;;;;;;9.55;5.83;;;;;;;30.90;36.44;100671.70;3546845;82;25982;-86
2022/07/20 18:59:50;;;;;;;12.23;6.50;;;;;;;30.66;36.22;100686.32;3528455;82;98655;-87
2022/07/20 19:04:51;;;;;;;10.55;5.45;;;;;;;30.39;36.09;100696.06;3545034;82;99061;-89
2022/07/20 19:09:54;;;;;;;18.27;6.25;;;;;;;30.17;36.29;100703.80;3507922;82;98562;-87
2022/07/20 19:14:55;;;;;;;13.62;6.10;;;;;;;29.97;36.72;100706.69;3511350;83;98974;-94
2022/07/20 19:19:56;;;;;;;15.45;6.15;;;;;;;29.78;37.22;100711.81;3470333;82;99048;-89
2022/07/20 19:24:57;;;;;;;15.90;6.40;;;;;;;29.63;37.82;100711.14;3504680;83;26086;-84
2022/07/20 19:29:58;;;;;;;11.33;5.50;;;;;;;29.44;38.02;100701.39;3473098;83;99181;-86
2022/07/20 19:34:59;;;;;;;11.03;6.00;;;;;;;29.31;38.59;100703.19;3472451;83;98921;-85
2022/07/20 19:40:00;;;;;;;9.28;5.55;;;;;;;29.15;38.85;100710.86;3465672;83;99037;-87
2022/07/20 19:45:04;;;;;;;12.68;6.20;;;;;;;29.05;39.14;100720.02;3475845;83;98865;-87
2022/07/20 19:50:08;;;;;;;15.32;6.30;;;;;;;28.89;39.42;100714.23;3500500;83;98982;-85
2022/07/20 19:55:09;;;;;;;12.28;5.20;;;;;;;28.78;39.77;100719.75;3494086;83;25870;-87
2022/07/20 20:00:11;;;;;;;9.95;5.33;;;;;;;28.66;40.21;100715.22;3484196;82;98514;-86
2022/07/20 20:05:12;;;;;;;9.70;5.70;;;;;;;28.55;40.50;100722.14;3489494;82;98743;-85
2022/07/20 20:10:13;;;;;;;11.53;5.75;;;;;;;28.47;40.76;100715.97;3511906;83;99130;-86
2022/07/20 20:15:14;;;;;;;12.40;5.30;;;;;;;28.33;40.95;100718.95;3479259;83;98994;-86
2022/07/20 20:20:16;;;;;;;11.33;5.30;;;;;;;28.21;41.11;100720.05;3472096;83;99111;-84
2022/07/20 20:25:17;;;;;;;9.35;5.17;;;;;;;28.10;41.58;100716.25;3472699;82;25886;-87
2022/07/20 20:30:18;;;;;;;9.90;5.67;;;;;;;28.02;42.18;100717.94;3530076;82;98827;-85
2022/07/20 20:35:19;;;;;;;12.82;5.83;;;;;;;27.94;42.33;100718.17;3477990;82;99067;-85
2022/07/20 20:40:20;;;;;;;10.20;5.97;;;;;;;27.80;42.32;100714.08;3492367;83;99302;-85
2022/07/20 20:45:21;;;;;;;11.45;6.10;;;;;;;27.70;42.53;100719.68;3491601;83;99306;-87
2022/07/20 20:50:22;;;;;;;10.25;5.10;;;;;;;27.58;43.00;100715.06;3509029;83;99386;-87
2022/07/20 20:55:23;;;;;;;11.65;5.87;;;;;;;27.49;43.19;100710.14;3530867;83;25857;-86
2022/07/20 21:00:25;;;;;;;9.03;5.05;;;;;;;27.39;43.70;100708.66;3460621;83;98709;-85
2022/07/20 21:05:26;;;;;;;10.75;4.58;;;;;;;27.30;44.25;100711.59;3485930;82;98698;-85
2022/07/20 21:10:27;;;;;;;12.82;5.60;;;;;;;27.24;44.35;100700.16;3501390;82;98954;-84
2022/07/20 21:15:28;;;;;;;9.00;5.25;;;;;;;27.16;44.02;100702.41;3499844;83;99051;-85
2022/07/20 21:20:29;;;;;;;8.93;4.62;;;;;;;27.01;43.97;100700.16;3508074;82;98927;-85
2022/07/20 21:25:30;;;;;;;12.13;5.40;;;;;;;26.88;44.58;100711.73;3485097;83;26060;-85
2022/07/20 21:30:31;;;;;;;10.03;5.75;;;;;;;26.77;44.74;100712.91;3486747;83;99111;-84
2022/07/20 21:35:33;;;;;;;12.80;5.28;;;;;;;26.72;45.55;100714.19;3496325;83;99078;-85
2022/07/20 21:40:34;;;;;;;10.13;4.92;;;;;;;26.70;45.95;100710.42;3495735;83;98999;-85
2022/07/20 21:45:36;;;;;;;9.68;5.50;;;;;;;26.49;46.35;100695.94;3508848;83;98994;-85
2022/07/20 21:50:37;;;;;;;9.43;5.47;;;;;;;26.55;46.00;100720.89;3525199;83;98885;-84
2022/07/20 21:55:41;;;;;;;8.10;4.80;;;;;;;26.46;46.40;100735.02;3479534;82;98796;-86
2022/07/20 22:00:42;;;;;;;10.85;5.42;;;;;;;26.34;46.32;100731.79;3513140;83;98737;-85
2022/07/20 22:05:43;;;;;;;8.85;4.80;;;;;;;26.28;47.13;100735.11;3510935;83;99121;-84
2022/07/20 22:10:44;;;;;;;12.07;5.25;;;;;;;26.25;47.53;100728.20;3517308;82;99267;-84
2022/07/20 22:15:45;;;;;;;11.03;4.47;;;;;;;26.22;48.22;100728.52;3481625;83;99339;-84
2022/07/20 22:20:47;;;;;;;10.23;4.80;;;;;;;26.19;48.60;100726.67;3486517;83;99437;-85
2022/07/20 22:25:49;;;;;;;11.12;5.72;;;;;;;26.13;48.80;100736.25;3475691;83;99029;-86
2022/07/20 22:30:51;;;;;;;10.85;4.87;;;;;;;26.00;48.86;100726.56;3470729;83;98649;-85
2022/07/20 22:35:52;;;;;;;9.85;5.30;;;;;;;26.00;49.56;100739.27;3522449;82;98922;-85
2022/07/20 22:40:53;;;;;;;9.30;4.62;;;;;;;25.89;49.43;100731.91;3514448;82;98800;-85
2022/07/20 22:45:54;;;;;;;9.58;5.33;;;;;;;25.82;49.35;100735.06;3526891;83;98870;-84
2022/07/20 22:50:55;;;;;;;9.30;5.75;;;;;;;25.77;49.81;100727.88;3475982;82;99265;-84
2022/07/20 22:55:56;;;;;;;8.78;4.67;;;;;;;25.66;49.30;100728.36;3513842;83;99070;-85
2022/07/20 23:00:57;;;;;;;13.95;6.70;;;;;;;25.58;49.85;100736.20;3501636;83;98522;-85
2022/07/20 23:05:58;;;;;;;11.15;5.17;;;;;;;25.50;49.99;100729.34;3474409;83;98849;-84
2022/07/20 23:10:59;;;;;;;11.10;5.47;;;;;;;25.39;50.41;100736.08;3529344;82;99325;-84
2022/07/20 23:16:00;;;;;;;9.08;4.80;;;;;;;25.38;50.95;100747.17;3563679;82;99107;-84